createdAt,value
2019-05-12T00:00:24.455Z,1018.28
2019-05-12T00:01:24.438Z,1018.31
2019-05-12T00:02:24.432Z,1018.39
2019-05-12T00:03:24.423Z,1018.32
2019-05-12T00:04:24.430Z,1018.47
2019-05-12T00:05:24.488Z,1018.49
2019-05-12T00:06:24.397Z,1018.42
2019-05-12T00:07:24.369Z,1018.43
2019-05-12T00:08:24.459Z,1018.48
2019-05-12T00:09:24.474Z,1018.49
2019-05-12T00:10:24.348Z,1018.50
2019-05-12T00:11:24.373Z,1018.58
2019-05-12T00:12:24.328Z,1018.57
2019-05-12T00:13:24.390Z,1018.51
2019-05-12T00:14:24.299Z,1018.52
2019-05-12T00:15:24.308Z,1018.54
2019-05-12T00:16:24.272Z,1018.49
2019-05-12T00:17:24.259Z,1018.54
2019-05-12T00:18:24.505Z,1018.56
2019-05-12T00:19:24.257Z,1018.56
2019-05-12T00:20:24.222Z,1018.60
2019-05-12T00:21:24.511Z,1018.64
2019-05-12T00:22:24.201Z,1018.68
2019-05-12T00:23:27.952Z,1018.69
2019-05-12T00:24:25.186Z,1018.67
2019-05-12T00:25:24.170Z,1018.62
2019-05-12T00:26:24.163Z,1018.69
2019-05-12T00:27:24.256Z,1018.66
2019-05-12T00:28:24.135Z,1018.72
2019-05-12T00:29:24.145Z,1018.65
2019-05-12T00:30:24.112Z,1018.68
2019-05-12T00:31:24.103Z,1018.69
2019-05-12T00:32:24.111Z,1018.74
2019-05-12T00:33:24.177Z,1018.74
2019-05-12T00:34:24.067Z,1018.74
2019-05-12T00:35:24.097Z,1018.81
2019-05-12T00:36:24.143Z,1018.78
2019-05-12T00:37:24.050Z,1018.81
2019-05-12T00:38:24.068Z,1018.82
2019-05-12T00:39:24.034Z,1018.82
2019-05-12T00:40:24.001Z,1018.87
2019-05-12T00:41:24.079Z,1018.83
2019-05-12T00:42:24.977Z,1018.89
2019-05-12T00:43:23.971Z,1018.89
2019-05-12T00:44:23.970Z,1018.85
2019-05-12T00:45:23.956Z,1018.92
2019-05-12T00:46:23.953Z,1018.91
2019-05-12T00:47:24.014Z,1018.87
2019-05-12T00:48:23.936Z,1019.01
2019-05-12T00:49:23.914Z,1019.00
2019-05-12T00:50:23.903Z,1019.06
2019-05-12T00:51:24.466Z,1019.04
2019-05-12T00:52:23.889Z,1019.11
2019-05-12T00:53:36.144Z,1019.12
2019-05-12T00:54:24.863Z,1019.15
2019-05-12T00:55:23.853Z,1019.18
2019-05-12T00:56:23.860Z,1019.22
2019-05-12T00:57:23.871Z,1019.26
2019-05-12T00:58:23.882Z,1019.34
2019-05-12T00:59:23.838Z,1019.28
2019-05-12T01:00:23.778Z,1019.25
2019-05-12T01:01:23.786Z,1019.36
2019-05-12T01:02:23.775Z,1019.39
2019-05-12T01:03:23.789Z,1019.40
2019-05-12T01:04:23.735Z,1019.33
2019-05-12T01:05:23.725Z,1019.38
2019-05-12T01:06:23.711Z,1019.33
2019-05-12T01:07:23.750Z,1019.36
2019-05-12T01:08:23.686Z,1019.38
2019-05-12T01:09:23.678Z,1019.38
2019-05-12T01:10:23.689Z,1019.41
2019-05-12T01:11:23.719Z,1019.39
2019-05-12T01:12:23.646Z,1019.42
2019-05-12T01:13:23.679Z,1019.40
2019-05-12T01:14:23.646Z,1019.46
2019-05-12T01:15:23.723Z,1019.45
2019-05-12T01:16:23.646Z,1019.49
2019-05-12T01:17:23.594Z,1019.57
2019-05-12T01:18:23.615Z,1019.53
2019-05-12T01:19:23.568Z,1019.58
2019-05-12T01:20:23.580Z,1019.66
2019-05-12T01:21:23.615Z,1019.64
2019-05-12T01:22:23.538Z,1019.64
2019-05-12T01:23:23.765Z,1019.61
2019-05-12T01:24:23.602Z,1019.63
2019-05-12T01:25:23.505Z,1019.66
2019-05-12T01:26:23.512Z,1019.68
2019-05-12T01:27:23.479Z,1019.71
2019-05-12T01:28:23.468Z,1019.66
2019-05-12T01:29:23.525Z,1019.73
2019-05-12T01:30:23.497Z,1019.71
2019-05-12T01:31:23.443Z,1019.76
2019-05-12T01:32:23.430Z,1019.80
2019-05-12T01:33:23.424Z,1019.78
2019-05-12T01:34:23.405Z,1019.83
2019-05-12T01:35:23.443Z,1019.80
2019-05-12T01:36:23.395Z,1019.85
2019-05-12T01:37:23.379Z,1019.84
2019-05-12T01:38:23.361Z,1019.84
2019-05-12T01:39:23.351Z,1019.82
2019-05-12T01:40:23.343Z,1019.87
2019-05-12T01:41:23.397Z,1019.87
2019-05-12T01:42:23.326Z,1019.86
2019-05-12T01:43:23.307Z,1019.91
2019-05-12T01:44:23.332Z,1019.88
2019-05-12T01:45:23.302Z,1019.92
2019-05-12T01:46:23.307Z,1019.94
2019-05-12T01:47:23.280Z,1019.94
2019-05-12T01:48:23.259Z,1019.93
2019-05-12T01:49:23.236Z,1019.94
2019-05-12T01:50:23.296Z,1019.92
2019-05-12T01:51:23.219Z,1019.98
2019-05-12T01:52:23.204Z,1019.97
2019-05-12T01:53:23.217Z,1019.99
2019-05-12T01:54:23.182Z,1019.95
2019-05-12T01:55:23.169Z,1020.01
2019-05-12T01:56:23.201Z,1020.03
2019-05-12T01:57:23.194Z,1020.05
2019-05-12T01:58:23.210Z,1020.07
2019-05-12T01:59:23.130Z,1020.13
2019-05-12T02:00:23.142Z,1020.14
2019-05-12T02:01:23.159Z,1020.21
2019-05-12T02:02:23.096Z,1020.25
2019-05-12T02:03:23.104Z,1020.25
2019-05-12T02:04:23.082Z,1020.32
2019-05-12T02:05:23.056Z,1020.32
2019-05-12T02:06:23.125Z,1020.34
2019-05-12T02:07:23.038Z,1020.40
2019-05-12T02:08:23.026Z,1020.38
2019-05-12T02:09:23.017Z,1020.38
2019-05-12T02:10:23.019Z,1020.39
2019-05-12T02:11:22.993Z,1020.34
2019-05-12T02:12:23.036Z,1020.37
2019-05-12T02:13:22.968Z,1020.42
2019-05-12T02:14:22.965Z,1020.42
2019-05-12T02:15:22.945Z,1020.42
2019-05-12T02:16:22.985Z,1020.42
2019-05-12T02:17:22.935Z,1020.46
2019-05-12T02:18:23.009Z,1020.47
2019-05-12T02:19:22.945Z,1020.43
2019-05-12T02:20:22.892Z,1020.43
2019-05-12T02:21:22.885Z,1020.47
2019-05-12T02:22:22.873Z,1020.50
2019-05-12T02:23:22.951Z,1020.52
2019-05-12T02:24:27.046Z,1020.51
2019-05-12T02:25:23.832Z,1020.50
2019-05-12T02:26:22.872Z,1020.48
2019-05-12T02:27:22.874Z,1020.51
2019-05-12T02:28:22.816Z,1020.53
2019-05-12T02:29:22.800Z,1020.55
2019-05-12T02:30:22.793Z,1020.54
2019-05-12T02:31:22.773Z,1020.59
2019-05-12T02:32:25.294Z,1020.63
2019-05-12T02:33:24.416Z,1020.62
2019-05-12T02:34:25.377Z,1020.63
2019-05-12T02:35:24.775Z,1020.64
2019-05-12T02:36:25.864Z,1020.67
2019-05-12T02:37:26.038Z,1020.71
2019-05-12T02:38:25.158Z,1020.68
2019-05-12T02:39:24.893Z,1020.70
2019-05-12T02:40:25.111Z,1020.75
2019-05-12T02:41:25.658Z,1020.76
2019-05-12T02:42:24.364Z,1020.75
2019-05-12T02:43:24.460Z,1020.76
2019-05-12T02:44:24.773Z,1020.76
2019-05-12T02:45:25.274Z,1020.87
2019-05-12T02:46:25.366Z,1020.88
2019-05-12T02:47:24.188Z,1020.87
2019-05-12T02:48:24.543Z,1020.87
2019-05-12T02:49:24.435Z,1020.89
2019-05-12T02:50:24.792Z,1020.88
2019-05-12T02:51:24.832Z,1020.95
2019-05-12T02:52:25.041Z,1020.95
2019-05-12T02:53:24.847Z,1020.99
2019-05-12T02:54:26.927Z,1020.97
2019-05-12T02:55:25.701Z,1020.98
2019-05-12T02:56:25.567Z,1021.00
2019-05-12T02:57:25.620Z,1021.04
2019-05-12T02:58:25.409Z,1021.06
2019-05-12T02:59:25.126Z,1021.07
2019-05-12T03:00:24.226Z,1021.04
2019-05-12T03:01:24.362Z,1021.04
2019-05-12T03:02:24.521Z,1021.07
2019-05-12T03:03:25.129Z,1021.11
2019-05-12T03:04:24.755Z,1021.05
2019-05-12T03:05:24.891Z,1021.08
2019-05-12T03:06:25.146Z,1021.13
2019-05-12T03:07:25.214Z,1021.09
2019-05-12T03:08:25.348Z,1021.09
2019-05-12T03:09:24.449Z,1021.12
2019-05-12T03:10:24.571Z,1021.12
2019-05-12T03:11:24.850Z,1021.11
2019-05-12T03:12:25.288Z,1021.11
2019-05-12T03:13:25.051Z,1021.12
2019-05-12T03:14:25.274Z,1021.12
2019-05-12T03:15:25.095Z,1021.16
2019-05-12T03:16:25.416Z,1021.15
2019-05-12T03:17:25.217Z,1021.14
2019-05-12T03:18:25.284Z,1021.13
2019-05-12T03:19:25.043Z,1021.15
2019-05-12T03:20:24.212Z,1021.21
2019-05-12T03:21:24.468Z,1021.18
2019-05-12T03:22:25.290Z,1021.21
2019-05-12T03:23:24.838Z,1021.18
2019-05-12T03:24:24.935Z,1021.22
2019-05-12T03:25:29.020Z,1021.23
2019-05-12T03:26:24.644Z,1021.23
2019-05-12T03:27:25.425Z,1021.24
2019-05-12T03:28:25.168Z,1021.27
2019-05-12T03:29:24.889Z,1021.24
2019-05-12T03:30:28.048Z,1021.22
2019-05-12T03:31:30.578Z,1021.30
2019-05-12T03:32:27.369Z,1021.23
2019-05-12T03:33:33.351Z,1021.21
2019-05-12T03:34:28.738Z,1021.26
2019-05-12T03:35:32.210Z,1021.23
2019-05-12T03:36:32.041Z,1021.33
2019-05-12T03:37:30.964Z,1021.32
2019-05-12T03:38:25.107Z,1021.32
2019-05-12T03:39:24.818Z,1021.36
2019-05-12T03:40:24.914Z,1021.39
2019-05-12T03:41:24.887Z,1021.37
2019-05-12T03:42:25.086Z,1021.46
2019-05-12T03:43:24.383Z,1021.43
2019-05-12T03:44:24.983Z,1021.46
2019-05-12T03:45:24.889Z,1021.50
2019-05-12T03:46:24.862Z,1021.49
2019-05-12T03:47:24.792Z,1021.51
2019-05-12T03:48:25.049Z,1021.53
2019-05-12T03:49:24.477Z,1021.61
2019-05-12T03:50:24.323Z,1021.51
2019-05-12T03:51:25.096Z,1021.53
2019-05-12T03:52:24.446Z,1021.56
2019-05-12T03:53:24.657Z,1021.60
2019-05-12T03:54:24.448Z,1021.62
2019-05-12T03:55:34.991Z,1021.62
2019-05-12T03:56:25.953Z,1021.60
2019-05-12T03:57:21.821Z,1021.65
2019-05-12T03:58:24.772Z,1021.63
2019-05-12T03:59:21.803Z,1021.71
2019-05-12T04:00:24.478Z,1021.68
2019-05-12T04:01:25.171Z,1021.69
2019-05-12T04:02:21.779Z,1021.68
2019-05-12T04:03:24.428Z,1021.80
2019-05-12T04:04:24.429Z,1021.77
2019-05-12T04:05:24.318Z,1021.77
2019-05-12T04:06:24.506Z,1021.75
2019-05-12T04:07:24.364Z,1021.80
2019-05-12T04:08:24.664Z,1021.80
2019-05-12T04:09:24.359Z,1021.85
2019-05-12T04:10:24.556Z,1021.84
2019-05-12T04:11:24.877Z,1021.90
2019-05-12T04:12:25.164Z,1021.93
2019-05-12T04:13:21.660Z,1021.90
2019-05-12T04:14:24.839Z,1021.91
2019-05-12T04:15:21.632Z,1021.89
2019-05-12T04:16:24.411Z,1021.89
2019-05-12T04:17:24.383Z,1021.90
2019-05-12T04:18:24.545Z,1021.93
2019-05-12T04:19:24.694Z,1021.98
2019-05-12T04:20:21.631Z,1021.99
2019-05-12T04:21:24.101Z,1022.00
2019-05-12T04:22:24.710Z,1022.02
2019-05-12T04:23:24.529Z,1022.05
2019-05-12T04:24:24.750Z,1022.08
2019-05-12T04:25:24.763Z,1022.13
2019-05-12T04:26:25.051Z,1022.09
2019-05-12T04:27:21.541Z,1022.11
2019-05-12T04:28:24.375Z,1022.10
2019-05-12T04:29:24.801Z,1022.16
2019-05-12T04:30:24.761Z,1022.17
2019-05-12T04:31:24.477Z,1022.20
2019-05-12T04:32:24.632Z,1022.23
2019-05-12T04:33:21.420Z,1022.26
2019-05-12T04:34:21.417Z,1022.28
2019-05-12T04:35:21.405Z,1022.34
2019-05-12T04:36:24.580Z,1022.38
2019-05-12T04:37:21.399Z,1022.38
2019-05-12T04:38:24.674Z,1022.41
2019-05-12T04:39:21.366Z,1022.41
2019-05-12T04:40:24.614Z,1022.44
2019-05-12T04:41:21.344Z,1022.47
2019-05-12T04:42:24.819Z,1022.46
2019-05-12T04:43:25.072Z,1022.51
2019-05-12T04:44:21.304Z,1022.50
2019-05-12T04:45:21.321Z,1022.50
2019-05-12T04:46:21.328Z,1022.55
2019-05-12T04:47:21.272Z,1022.57
2019-05-12T04:48:21.710Z,1022.63
2019-05-12T04:49:24.684Z,1022.64
2019-05-12T04:50:24.262Z,1022.73
2019-05-12T04:51:21.225Z,1022.68
2019-05-12T04:52:24.608Z,1022.71
2019-05-12T04:53:24.870Z,1022.69
2019-05-12T04:54:21.190Z,1022.76
2019-05-12T04:55:21.181Z,1022.70
2019-05-12T04:56:24.732Z,1022.77
2019-05-12T04:57:21.484Z,1022.78
2019-05-12T04:58:21.203Z,1022.79
2019-05-12T04:59:21.143Z,1022.79
2019-05-12T05:00:21.123Z,1022.79
2019-05-12T05:01:21.115Z,1022.77
2019-05-12T05:02:24.616Z,1022.80
2019-05-12T05:03:21.103Z,1022.81
2019-05-12T05:04:24.097Z,1022.82
2019-05-12T05:05:21.076Z,1022.86
2019-05-12T05:06:21.056Z,1022.85
2019-05-12T05:07:24.195Z,1022.90
2019-05-12T05:08:24.109Z,1022.96
2019-05-12T05:09:21.093Z,1022.96
2019-05-12T05:10:21.066Z,1022.95
2019-05-12T05:11:21.007Z,1022.99
2019-05-12T05:12:23.724Z,1023.00
2019-05-12T05:13:20.988Z,1023.05
2019-05-12T05:14:21.015Z,1023.05
2019-05-12T05:15:21.022Z,1023.06
2019-05-12T05:16:20.960Z,1023.05
2019-05-12T05:17:20.946Z,1023.12
2019-05-12T05:18:20.929Z,1023.09
2019-05-12T05:19:20.921Z,1023.14
2019-05-12T05:20:20.901Z,1023.19
2019-05-12T05:21:20.961Z,1023.18
2019-05-12T05:22:20.888Z,1023.24
2019-05-12T05:23:20.883Z,1023.22
2019-05-12T05:24:23.404Z,1023.23
2019-05-12T05:25:20.899Z,1023.27
2019-05-12T05:26:27.148Z,1023.28
2019-05-12T05:27:21.838Z,1023.22
2019-05-12T05:28:20.830Z,1023.17
2019-05-12T05:29:20.844Z,1023.19
2019-05-12T05:30:20.842Z,1023.22
2019-05-12T05:31:20.789Z,1023.16
2019-05-12T05:32:23.159Z,1023.21
2019-05-12T05:33:20.786Z,1023.24
2019-05-12T05:34:20.782Z,1023.22
2019-05-12T05:35:20.737Z,1023.20
2019-05-12T05:36:20.745Z,1023.19
2019-05-12T05:37:20.730Z,1023.23
2019-05-12T05:38:21.009Z,1023.21
2019-05-12T05:39:20.689Z,1023.25
2019-05-12T05:40:25.990Z,1023.27
2019-05-12T05:41:23.926Z,1023.34
2019-05-12T05:42:22.250Z,1023.36
2019-05-12T05:43:24.030Z,1023.41
2019-05-12T05:44:20.653Z,1023.45
2019-05-12T05:45:24.240Z,1023.42
2019-05-12T05:46:23.959Z,1023.50
2019-05-12T05:47:25.601Z,1023.47
2019-05-12T05:48:23.991Z,1023.55
2019-05-12T05:49:20.604Z,1023.62
2019-05-12T05:50:25.089Z,1023.53
2019-05-12T05:51:23.710Z,1023.56
2019-05-12T05:52:24.635Z,1023.60
2019-05-12T05:53:21.561Z,1023.59
2019-05-12T05:54:24.726Z,1023.67
2019-05-12T05:55:23.331Z,1023.65
2019-05-12T05:56:20.497Z,1023.75
2019-05-12T05:57:25.717Z,1023.72
2019-05-12T05:58:21.540Z,1023.85
2019-05-12T05:59:24.098Z,1023.76
2019-05-12T06:00:25.608Z,1023.76
2019-05-12T06:01:20.505Z,1023.85
2019-05-12T06:02:25.580Z,1023.83
2019-05-12T06:03:27.193Z,1023.83
2019-05-12T06:04:23.661Z,1023.84
2019-05-12T06:05:26.439Z,1023.81
2019-05-12T06:06:23.647Z,1023.82
2019-05-12T06:07:23.821Z,1023.85
2019-05-12T06:08:23.694Z,1023.85
2019-05-12T06:09:20.402Z,1023.90
2019-05-12T06:10:20.347Z,1023.84
2019-05-12T06:11:26.556Z,1023.86
2019-05-12T06:12:21.321Z,1023.89
2019-05-12T06:13:21.211Z,1023.86
2019-05-12T06:14:23.061Z,1023.84
2019-05-12T06:15:20.294Z,1023.87
2019-05-12T06:16:22.837Z,1023.95
2019-05-12T06:17:20.271Z,1023.91
2019-05-12T06:18:20.268Z,1023.94
2019-05-12T06:19:23.478Z,1023.95
2019-05-12T06:20:21.223Z,1023.95
2019-05-12T06:21:20.232Z,1023.99
2019-05-12T06:22:20.199Z,1023.95
2019-05-12T06:23:20.202Z,1024.04
2019-05-12T06:24:20.339Z,1024.01
2019-05-12T06:25:20.235Z,1023.99
2019-05-12T06:26:21.090Z,1024.03
2019-05-12T06:27:21.319Z,1024.04
2019-05-12T06:28:20.167Z,1023.98
2019-05-12T06:29:21.993Z,1024.04
2019-05-12T06:30:20.116Z,1024.00
2019-05-12T06:31:25.167Z,1024.00
2019-05-12T06:32:21.164Z,1024.09
2019-05-12T06:33:22.714Z,1024.07
2019-05-12T06:34:21.232Z,1024.07
2019-05-12T06:35:20.072Z,1024.11
2019-05-12T06:36:21.983Z,1024.19
2019-05-12T06:37:20.102Z,1024.12
2019-05-12T06:38:20.025Z,1024.16
2019-05-12T06:39:20.880Z,1024.13
2019-05-12T06:40:20.007Z,1024.13
2019-05-12T06:41:21.311Z,1024.15
2019-05-12T06:42:19.980Z,1024.12
2019-05-12T06:43:20.043Z,1024.19
2019-05-12T06:44:20.010Z,1024.22
2019-05-12T06:45:19.941Z,1024.18
2019-05-12T06:46:22.908Z,1024.24
2019-05-12T06:47:19.942Z,1024.22
2019-05-12T06:48:28.438Z,1024.28
2019-05-12T06:49:20.916Z,1024.29
2019-05-12T06:50:19.887Z,1024.25
2019-05-12T06:51:23.652Z,1024.26
2019-05-12T06:52:20.953Z,1024.29
2019-05-12T06:53:24.961Z,1024.31
2019-05-12T06:54:20.861Z,1024.31
2019-05-12T06:55:19.837Z,1024.32
2019-05-12T06:56:20.049Z,1024.33
2019-05-12T06:57:25.317Z,1024.34
2019-05-12T06:58:26.522Z,1024.34
2019-05-12T06:59:21.542Z,1024.34
2019-05-12T07:00:22.252Z,1024.33
2019-05-12T07:01:20.820Z,1024.36
2019-05-12T07:02:19.787Z,1024.39
2019-05-12T07:03:26.168Z,1024.49
2019-05-12T07:04:21.902Z,1024.46
2019-05-12T07:05:19.733Z,1024.47
2019-05-12T07:06:20.087Z,1024.50
2019-05-12T07:07:19.696Z,1024.53
2019-05-12T07:08:26.504Z,1024.54
2019-05-12T07:09:25.045Z,1024.53
2019-05-12T07:10:36.877Z,1024.56
2019-05-12T07:11:20.656Z,1024.49
2019-05-12T07:12:24.887Z,1024.54
2019-05-12T07:13:24.987Z,1024.47
2019-05-12T07:14:22.892Z,1024.45
2019-05-12T07:15:20.694Z,1024.49
2019-05-12T07:16:26.749Z,1024.51
2019-05-12T07:17:20.581Z,1024.52
2019-05-12T07:18:24.338Z,1024.49
2019-05-12T07:19:22.747Z,1024.47
2019-05-12T07:20:19.624Z,1024.48
2019-05-12T07:21:22.109Z,1024.48
2019-05-12T07:22:22.756Z,1024.52
2019-05-12T07:23:26.012Z,1024.45
2019-05-12T07:24:20.518Z,1024.47
2019-05-12T07:25:24.513Z,1024.50
2019-05-12T07:26:20.489Z,1024.54
2019-05-12T07:27:32.247Z,1024.54
2019-05-12T07:28:20.459Z,1024.54
2019-05-12T07:29:19.531Z,1024.56
2019-05-12T07:30:19.435Z,1024.49
2019-05-12T07:31:19.426Z,1024.50
2019-05-12T07:32:21.776Z,1024.52
2019-05-12T07:33:20.409Z,1024.58
2019-05-12T07:34:19.449Z,1024.71
2019-05-12T07:35:19.441Z,1024.58
2019-05-12T07:36:19.364Z,1024.67
2019-05-12T07:37:19.422Z,1024.76
2019-05-12T07:38:21.371Z,1024.75
2019-05-12T07:39:19.363Z,1024.61
2019-05-12T07:40:25.782Z,1024.60
2019-05-12T07:41:20.313Z,1024.66
2019-05-12T07:42:24.800Z,1024.57
2019-05-12T07:43:20.882Z,1024.66
2019-05-12T07:44:22.040Z,1024.64
2019-05-12T07:45:22.351Z,1024.62
2019-05-12T07:46:19.258Z,1024.62
2019-05-12T07:47:24.608Z,1024.62
2019-05-12T07:48:20.223Z,1024.63
2019-05-12T07:49:23.588Z,1024.54
2019-05-12T07:50:23.868Z,1024.56
2019-05-12T07:51:20.285Z,1024.66
2019-05-12T07:52:19.247Z,1024.66
2019-05-12T07:53:19.199Z,1024.65
2019-05-12T07:54:19.187Z,1024.61
2019-05-12T07:55:19.180Z,1024.69
2019-05-12T07:56:19.579Z,1024.67
2019-05-12T07:57:20.209Z,1024.73
2019-05-12T07:58:19.618Z,1024.67
2019-05-12T07:59:19.103Z,1024.65
2019-05-12T08:00:25.183Z,1024.63
2019-05-12T08:01:20.149Z,1024.64
2019-05-12T08:02:23.182Z,1024.61
2019-05-12T08:03:21.362Z,1024.73
2019-05-12T08:04:19.047Z,1024.75
2019-05-12T08:05:21.230Z,1024.75
2019-05-12T08:06:19.041Z,1024.72
2019-05-12T08:07:19.788Z,1024.74
2019-05-12T08:08:20.000Z,1024.70
2019-05-12T08:09:24.280Z,1024.68
2019-05-12T08:10:20.317Z,1024.61
2019-05-12T08:11:18.964Z,1024.64
2019-05-12T08:12:20.983Z,1024.69
2019-05-12T08:13:18.975Z,1024.75
2019-05-12T08:14:25.922Z,1024.63
2019-05-12T08:15:19.925Z,1024.71
2019-05-12T08:16:19.536Z,1024.67
2019-05-12T08:17:19.920Z,1024.68
2019-05-12T08:18:18.944Z,1024.61
2019-05-12T08:19:23.828Z,1024.70
2019-05-12T08:20:19.871Z,1024.72
2019-05-12T08:21:18.925Z,1024.63
2019-05-12T08:22:24.043Z,1024.75
2019-05-12T08:23:19.832Z,1024.76
2019-05-12T08:24:18.851Z,1024.80
2019-05-12T08:25:23.676Z,1024.76
2019-05-12T08:26:19.803Z,1024.78
2019-05-12T08:27:18.853Z,1024.80
2019-05-12T08:28:19.571Z,1024.76
2019-05-12T08:29:21.526Z,1024.80
2019-05-12T08:30:18.768Z,1024.78
2019-05-12T08:31:25.831Z,1024.76
2019-05-12T08:32:20.406Z,1024.84
2019-05-12T08:33:18.759Z,1024.82
2019-05-12T08:34:18.707Z,1024.79
2019-05-12T08:35:25.549Z,1025.02
2019-05-12T08:36:19.768Z,1024.86
2019-05-12T08:37:18.685Z,1024.92
2019-05-12T08:38:18.658Z,1024.83
2019-05-12T08:39:22.878Z,1024.79
2019-05-12T08:40:19.671Z,1024.84
2019-05-12T08:41:18.666Z,1024.83
2019-05-12T08:42:18.686Z,1024.88
2019-05-12T08:43:18.654Z,1024.89
2019-05-12T08:44:24.917Z,1024.83
2019-05-12T08:45:25.196Z,1024.87
2019-05-12T08:46:19.574Z,1024.92
2019-05-12T08:47:18.570Z,1025.02
2019-05-12T08:48:21.634Z,1024.92
2019-05-12T08:49:19.541Z,1024.87
2019-05-12T08:50:23.065Z,1024.89
2019-05-12T08:51:20.237Z,1024.97
2019-05-12T08:52:18.510Z,1024.89
2019-05-12T08:53:20.678Z,1024.97
2019-05-12T08:54:18.541Z,1024.87
2019-05-12T08:55:25.046Z,1024.90
2019-05-12T08:56:22.947Z,1024.98
2019-05-12T08:57:19.472Z,1024.91
2019-05-12T08:58:30.154Z,1024.83
2019-05-12T08:59:24.209Z,1025.00
2019-05-12T09:00:19.421Z,1025.09
2019-05-12T09:01:20.409Z,1024.99
2019-05-12T09:02:19.391Z,1024.96
2019-05-12T09:03:20.581Z,1024.98
2019-05-12T09:04:19.373Z,1025.00
2019-05-12T09:05:18.356Z,1025.04
2019-05-12T09:06:19.905Z,1025.02
2019-05-12T09:07:18.483Z,1025.05
2019-05-12T09:08:18.359Z,1025.08
2019-05-12T09:09:18.359Z,1025.11
2019-05-12T09:10:18.310Z,1025.13
2019-05-12T09:11:18.331Z,1025.16
2019-05-12T09:12:18.345Z,1025.07
2019-05-12T09:13:18.272Z,1025.06
2019-05-12T09:14:18.269Z,1025.03
2019-05-12T09:15:18.294Z,1025.04
2019-05-12T09:16:18.291Z,1024.99
2019-05-12T09:17:18.216Z,1025.01
2019-05-12T09:18:18.982Z,1025.06
2019-05-12T09:19:23.903Z,1025.10
2019-05-12T09:20:19.200Z,1025.05
2019-05-12T09:21:18.239Z,1025.06
2019-05-12T09:22:20.931Z,1025.06
2019-05-12T09:23:18.250Z,1025.01
2019-05-12T09:24:21.597Z,1025.05
2019-05-12T09:25:18.148Z,1025.05
2019-05-12T09:26:18.671Z,1025.06
2019-05-12T09:27:19.204Z,1025.03
2019-05-12T09:28:18.098Z,1025.01
2019-05-12T09:29:18.191Z,1025.11
2019-05-12T09:30:18.127Z,1025.04
2019-05-12T09:31:19.330Z,1024.97
2019-05-12T09:32:19.045Z,1025.01
2019-05-12T09:33:21.310Z,1025.02
2019-05-12T09:34:19.081Z,1024.97
2019-05-12T09:35:18.053Z,1025.01
2019-05-12T09:36:20.262Z,1025.18
2019-05-12T09:37:18.000Z,1024.98
2019-05-12T09:38:22.860Z,1025.09
2019-05-12T09:39:19.030Z,1025.11
2019-05-12T09:40:20.740Z,1025.05
2019-05-12T09:41:18.033Z,1025.02
2019-05-12T09:42:19.252Z,1025.12
2019-05-12T09:43:18.940Z,1025.11
2019-05-12T09:44:20.321Z,1025.12
2019-05-12T09:45:18.907Z,1025.11
2019-05-12T09:46:17.901Z,1025.10
2019-05-12T09:47:23.018Z,1025.17
2019-05-12T09:48:18.888Z,1025.15
2019-05-12T09:49:25.009Z,1025.16
2019-05-12T09:50:20.423Z,1025.27
2019-05-12T09:51:17.838Z,1025.18
2019-05-12T09:52:22.355Z,1025.23
2019-05-12T09:53:18.858Z,1025.31
2019-05-12T09:54:17.844Z,1025.24
2019-05-12T09:55:17.802Z,1025.19
2019-05-12T09:56:17.851Z,1025.17
2019-05-12T09:57:17.791Z,1025.21
2019-05-12T09:58:23.243Z,1025.17
2019-05-12T09:59:22.922Z,1025.13
2019-05-12T10:00:18.755Z,1025.19
2019-05-12T10:01:17.846Z,1025.29
2019-05-12T10:02:20.680Z,1025.32
2019-05-12T10:03:17.752Z,1025.28
2019-05-12T10:04:19.570Z,1025.23
2019-05-12T10:05:17.688Z,1025.16
2019-05-12T10:06:21.149Z,1025.23
2019-05-12T10:07:17.682Z,1025.22
2019-05-12T10:08:17.682Z,1025.31
2019-05-12T10:09:19.936Z,1025.21
2019-05-12T10:10:17.649Z,1025.29
2019-05-12T10:11:20.802Z,1025.30
2019-05-12T10:12:17.603Z,1025.27
2019-05-12T10:13:20.359Z,1025.38
2019-05-12T10:14:18.591Z,1025.49
2019-05-12T10:15:18.767Z,1025.41
2019-05-12T10:16:18.567Z,1025.45
2019-05-12T10:17:20.342Z,1025.33
2019-05-12T10:18:18.597Z,1025.35
2019-05-12T10:19:17.540Z,1025.31
2019-05-12T10:20:17.512Z,1025.28
2019-05-12T10:21:17.696Z,1025.25
2019-05-12T10:22:17.553Z,1025.30
2019-05-12T10:23:20.171Z,1025.32
2019-05-12T10:24:18.519Z,1025.32
2019-05-12T10:25:17.462Z,1025.26
2019-05-12T10:26:17.452Z,1025.32
2019-05-12T10:27:21.231Z,1025.24
2019-05-12T10:28:18.488Z,1025.24
2019-05-12T10:29:20.675Z,1025.34
2019-05-12T10:30:17.769Z,1025.41
2019-05-12T10:31:18.812Z,1025.37
2019-05-12T10:32:17.405Z,1025.37
2019-05-12T10:33:17.389Z,1025.46
2019-05-12T10:34:17.420Z,1025.34
2019-05-12T10:35:21.971Z,1025.35
2019-05-12T10:36:18.330Z,1025.33
2019-05-12T10:37:19.282Z,1025.33
2019-05-12T10:38:18.307Z,1025.42
2019-05-12T10:39:17.306Z,1025.41
2019-05-12T10:40:17.304Z,1025.45
2019-05-12T10:41:17.275Z,1025.38
2019-05-12T10:42:17.264Z,1025.51
2019-05-12T10:43:17.452Z,1025.40
2019-05-12T10:44:17.239Z,1025.39
2019-05-12T10:45:20.454Z,1025.47
2019-05-12T10:46:18.484Z,1025.40
2019-05-12T10:47:18.265Z,1025.39
2019-05-12T10:48:17.220Z,1025.37
2019-05-12T10:49:17.190Z,1025.37
2019-05-12T10:50:17.177Z,1025.26
2019-05-12T10:51:17.212Z,1025.31
2019-05-12T10:52:17.150Z,1025.34
2019-05-12T10:53:17.950Z,1025.45
2019-05-12T10:54:17.200Z,1025.47
2019-05-12T10:55:17.123Z,1025.35
2019-05-12T10:56:17.173Z,1025.27
2019-05-12T10:57:17.099Z,1025.27
2019-05-12T10:58:17.129Z,1025.26
2019-05-12T10:59:28.990Z,1025.30
2019-05-12T11:00:25.116Z,1025.25
2019-05-12T11:01:18.108Z,1025.23
2019-05-12T11:02:20.583Z,1025.24
2019-05-12T11:03:18.050Z,1025.23
2019-05-12T11:04:17.034Z,1025.33
2019-05-12T11:05:21.251Z,1025.29
2019-05-12T11:06:17.999Z,1025.32
2019-05-12T11:07:17.049Z,1025.30
2019-05-12T11:08:16.971Z,1025.40
2019-05-12T11:09:21.301Z,1025.30
2019-05-12T11:10:20.032Z,1025.34
2019-05-12T11:11:16.957Z,1025.38
2019-05-12T11:12:19.102Z,1025.28
2019-05-12T11:13:18.246Z,1025.34
2019-05-12T11:14:20.327Z,1025.31
2019-05-12T11:15:17.905Z,1025.31
2019-05-12T11:16:17.154Z,1025.27
2019-05-12T11:17:18.290Z,1025.28
2019-05-12T11:18:20.461Z,1025.28
2019-05-12T11:19:17.943Z,1025.23
2019-05-12T11:20:16.864Z,1025.31
2019-05-12T11:21:16.833Z,1025.26
2019-05-12T11:22:16.813Z,1025.33
2019-05-12T11:23:16.848Z,1025.23
2019-05-12T11:24:16.842Z,1025.33
2019-05-12T11:25:16.847Z,1025.35
2019-05-12T11:26:16.837Z,1025.34
2019-05-12T11:27:16.760Z,1025.34
2019-05-12T11:28:16.767Z,1025.37
2019-05-12T11:29:16.755Z,1025.29
2019-05-12T11:30:16.767Z,1025.23
2019-05-12T11:31:16.905Z,1025.29
2019-05-12T11:32:17.751Z,1025.29
2019-05-12T11:33:16.699Z,1025.25
2019-05-12T11:34:16.725Z,1025.35
2019-05-12T11:35:16.715Z,1025.37
2019-05-12T11:36:16.662Z,1025.34
2019-05-12T11:37:16.654Z,1025.38
2019-05-12T11:38:16.644Z,1025.26
2019-05-12T11:39:16.660Z,1025.38
2019-05-12T11:40:16.672Z,1025.40
2019-05-12T11:41:20.191Z,1025.28
2019-05-12T11:42:16.640Z,1025.30
2019-05-12T11:43:16.584Z,1025.37
2019-05-12T11:44:16.567Z,1025.37
2019-05-12T11:45:16.660Z,1025.31
2019-05-12T11:46:16.595Z,1025.36
2019-05-12T11:47:23.802Z,1025.35
2019-05-12T11:48:17.530Z,1025.37
2019-05-12T11:49:21.651Z,1025.34
2019-05-12T11:50:17.516Z,1025.16
2019-05-12T11:51:20.740Z,1025.30
2019-05-12T11:52:19.371Z,1025.27
2019-05-12T11:53:16.555Z,1025.26
2019-05-12T11:54:16.478Z,1025.43
2019-05-12T11:55:21.325Z,1025.40
2019-05-12T11:56:17.441Z,1025.41
2019-05-12T11:57:20.039Z,1025.39
2019-05-12T11:58:17.485Z,1025.42
2019-05-12T11:59:16.404Z,1025.42
2019-05-12T12:00:16.448Z,1025.32
2019-05-12T12:01:16.391Z,1025.30
2019-05-12T12:02:20.200Z,1025.34
2019-05-12T12:03:18.347Z,1025.37
2019-05-12T12:04:16.354Z,1025.34
2019-05-12T12:05:16.339Z,1025.44